Time;durP1;ratioP1;P1;durP2;ratioP2;P2;SDS_P1;SDS_P2;PMS_P1;PMS_P2;Temp;Humidity;BMP_temperature;BMP_pressure;BME280_temperature;BME280_humidity;BME280_pressure;Samples;Min_cycle;Max_cycle;Signal;HPM_P1;HPM_P2
2022/01/05 00:01:11;;;;;;;1.95;1.33;;;19.20;47.20;;;;;;5017934;28;20223;-70
2022/01/05 00:03:38;;;;;;;1.48;1.30;;;19.20;47.20;;;;;;5017800;28;20314;-69
2022/01/05 00:06:05;;;;;;;1.20;1.20;;;19.20;47.30;;;;;;5034661;28;20262;-67
2022/01/05 00:08:33;;;;;;;1.40;1.40;;;19.20;47.20;;;;;;5017630;28;20222;-68
2022/01/05 00:11:00;;;;;;;1.27;1.25;;;19.20;47.30;;;;;;5017677;28;20226;-69
2022/01/05 00:13:27;;;;;;;1.33;1.33;;;19.10;47.20;;;;;;5034095;28;20571;-69
2022/01/05 00:15:55;;;;;;;1.42;1.33;;;19.10;47.30;;;;;;5017833;28;20204;-67
2022/01/05 00:18:22;;;;;;;1.20;1.20;;;19.10;47.40;;;;;;5035271;28;20620;-67
2022/01/05 00:20:49;;;;;;;1.25;1.25;;;19.10;47.50;;;;;;5034842;28;20869;-69
2022/01/05 00:23:16;;;;;;;1.33;1.20;;;19.00;47.40;;;;;;5034144;28;20204;-67
2022/01/05 00:25:44;;;;;;;1.38;1.10;;;19.00;47.50;;;;;;5033983;28;20227;-68
2022/01/05 00:28:12;;;;;;;1.38;1.10;;;19.00;47.50;;;;;;5035337;28;20641;-70
2022/01/05 00:30:39;;;;;;;1.63;1.30;;;19.00;47.60;;;;;;5017591;28;20207;-70
2022/01/05 00:33:06;;;;;;;1.20;1.20;;;19.00;47.50;;;;;;5017278;28;20210;-67
2022/01/05 00:35:33;;;;;;;1.58;1.13;;;18.90;47.40;;;;;;5017294;28;20211;-67
2022/01/05 00:38:00;;;;;;;1.10;1.10;;;18.90;47.50;;;;;;5017266;28;20277;-68
2022/01/05 00:40:27;;;;;;;1.20;1.20;;;18.90;47.50;;;;;;5034477;28;20208;-69
2022/01/05 00:42:56;;;;;;;1.10;1.10;;;18.90;47.60;;;;;;5016595;28;20672;-68
2022/01/05 00:45:24;;;;;;;1.00;1.00;;;18.90;47.60;;;;;;5016599;28;20192;-67
2022/01/05 00:47:50;;;;;;;1.15;1.15;;;18.90;47.60;;;;;;5016670;28;20230;-70
2022/01/05 00:50:18;;;;;;;1.40;1.30;;;18.80;47.40;;;;;;5032955;28;20196;-67
2022/01/05 00:52:45;;;;;;;1.13;1.10;;;18.80;47.50;;;;;;5033450;28;20213;-68
2022/01/05 00:55:12;;;;;;;1.13;1.13;;;18.80;47.60;;;;;;5017299;28;20200;-69
2022/01/05 00:57:38;;;;;;;1.05;1.05;;;18.80;47.70;;;;;;5033300;28;20216;-68
2022/01/05 01:00:08;;;;;;;1.10;1.10;;;18.80;47.70;;;;;;5016624;28;20216;-68
2022/01/05 01:02:35;;;;;;;1.00;1.00;;;18.80;47.50;;;;;;5016822;28;20200;-68
2022/01/05 01:05:03;;;;;;;1.25;1.15;;;18.70;47.50;;;;;;5033495;28;20203;-69
2022/01/05 01:07:30;;;;;;;1.20;1.20;;;18.70;47.40;;;;;;5033710;28;20251;-69
2022/01/05 01:09:57;;;;;;;1.20;1.20;;;18.80;47.50;;;;;;5034788;28;20723;-68
2022/01/05 01:12:25;;;;;;;1.13;1.13;;;18.70;47.40;;;;;;5033594;28;20227;-69
2022/01/05 01:14:52;;;;;;;1.10;1.10;;;18.70;47.50;;;;;;5017126;28;20304;-70
2022/01/05 01:17:22;;;;;;;1.10;1.10;;;18.70;47.70;;;;;;5017078;28;20259;-68
2022/01/05 01:19:49;;;;;;;1.15;1.15;;;18.70;47.70;;;;;;5033615;28;20283;-67
2022/01/05 01:22:16;;;;;;;1.38;1.30;;;18.70;47.60;;;;;;5017416;28;20200;-67
2022/01/05 01:24:43;;;;;;;1.10;1.10;;;18.70;47.70;;;;;;5017235;28;20196;-69
2022/01/05 01:27:10;;;;;;;1.10;1.10;;;18.60;47.60;;;;;;5034988;28;20215;-68
2022/01/05 01:29:37;;;;;;;1.50;1.20;;;18.60;47.60;;;;;;5034076;28;20200;-67
2022/01/05 01:32:05;;;;;;;1.20;1.20;;;18.60;47.70;;;;;;5017234;28;20246;-69
2022/01/05 01:34:33;;;;;;;1.13;1.13;;;18.60;47.60;;;;;;5034635;28;20185;-68
2022/01/05 01:37:01;;;;;;;1.60;1.15;;;18.60;47.60;;;;;;5033234;28;20226;-68
2022/01/05 01:39:28;;;;;;;1.20;1.20;;;18.60;47.80;;;;;;5017019;28;20271;-68
2022/01/05 01:41:55;;;;;;;1.05;1.05;;;18.60;47.80;;;;;;5016722;28;20383;-69
2022/01/05 01:44:22;;;;;;;1.08;1.08;;;18.60;47.70;;;;;;5034106;28;20200;-68
2022/01/05 01:46:49;;;;;;;1.00;1.00;;;18.50;47.70;;;;;;5029015;28;20212;-68
2022/01/05 01:49:16;;;;;;;1.00;1.00;;;18.50;47.70;;;;;;5035021;28;20196;-68
2022/01/05 01:51:44;;;;;;;1.00;1.00;;;18.50;47.70;;;;;;5035303;28;20185;-69
2022/01/05 01:54:12;;;;;;;1.05;1.05;;;18.50;47.70;;;;;;5017608;28;20199;-67
2022/01/05 01:56:39;;;;;;;1.00;1.00;;;18.50;47.60;;;;;;5034254;28;20214;-68
2022/01/05 01:59:08;;;;;;;1.17;1.10;;;18.50;47.80;;;;;;5033926;28;20251;-69
2022/01/05 02:01:34;;;;;;;1.17;0.95;;;18.50;47.90;;;;;;5035103;28;20231;-70
2022/01/05 02:04:02;;;;;;;1.25;1.17;;;18.50;47.80;;;;;;5035131;28;20274;-68
2022/01/05 02:06:31;;;;;;;1.05;1.05;;;18.50;47.90;;;;;;5022180;28;20664;-68
2022/01/05 02:08:59;;;;;;;1.10;1.10;;;18.50;47.90;;;;;;5017654;28;20618;-70
2022/01/05 02:11:27;;;;;;;1.27;1.17;;;18.40;47.90;;;;;;5017994;28;20212;-69
2022/01/05 02:13:53;;;;;;;0.90;0.90;;;18.40;48.70;;;;;;5017907;28;20215;-68
2022/01/05 02:16:21;;;;;;;0.90;0.90;;;18.40;48.00;;;;;;5018206;28;20258;-67
2022/01/05 02:19:00;;;;;;;1.10;1.10;;;18.50;48.00;;;;;;5017953;28;20258;-70
2022/01/05 02:21:29;;;;;;;1.38;0.95;;;18.40;48.00;;;;;;5019968;28;20215;-69
2022/01/05 02:23:56;;;;;;;1.20;1.20;;;18.40;47.90;;;;;;5017870;28;20364;-68
2022/01/05 02:26:25;;;;;;;0.90;0.90;;;18.40;48.10;;;;;;5034488;28;20220;-68
2022/01/05 02:28:52;;;;;;;0.95;0.95;;;18.40;48.10;;;;;;5035357;28;20196;-70
2022/01/05 02:31:19;;;;;;;1.20;1.20;;;18.30;48.10;;;;;;5035013;28;20187;-69
2022/01/05 02:33:46;;;;;;;1.00;1.00;;;18.30;48.00;;;;;;5033799;28;20290;-68
2022/01/05 02:36:17;;;;;;;1.13;1.10;;;18.30;47.90;;;;;;5017400;28;20203;-68
2022/01/05 02:38:46;;;;;;;1.13;1.10;;;18.30;48.00;;;;;;5017228;28;20224;-68
2022/01/05 02:41:13;;;;;;;1.02;1.00;;;18.30;48.00;;;;;;5033340;28;20247;-68
2022/01/05 02:43:41;;;;;;;1.10;1.10;;;18.30;48.00;;;;;;5034446;28;20206;-68
2022/01/05 02:46:10;;;;;;;1.05;1.05;;;18.30;48.70;;;;;;5016920;28;20204;-68
2022/01/05 02:48:37;;;;;;;0.93;0.93;;;18.30;48.10;;;;;;5016703;28;20227;-67
2022/01/05 02:51:05;;;;;;;1.00;1.00;;;18.30;48.20;;;;;;5019549;28;20566;-70
2022/01/05 02:53:32;;;;;;;1.10;1.10;;;18.30;48.00;;;;;;5020160;28;20199;-70
2022/01/05 02:56:00;;;;;;;1.25;1.15;;;18.30;48.20;;;;;;5036308;28;20200;-67
2022/01/05 02:58:28;;;;;;;0.93;0.93;;;18.30;48.10;;;;;;5035660;28;20224;-67
2022/01/05 03:00:55;;;;;;;0.90;0.90;;;18.30;48.10;;;;;;5037600;28;20410;-70
2022/01/05 03:03:22;;;;;;;1.00;1.00;;;18.30;48.30;;;;;;5019832;28;20235;-68
2022/01/05 03:05:49;;;;;;;1.00;1.00;;;18.20;48.10;;;;;;5019387;28;20192;-68
2022/01/05 03:08:16;;;;;;;1.25;1.10;;;18.30;48.20;;;;;;5019837;28;20679;-68
2022/01/05 03:10:43;;;;;;;1.10;0.95;;;18.20;48.10;;;;;;5019045;28;20200;-69
2022/01/05 03:13:11;;;;;;;0.90;0.90;;;18.20;48.20;;;;;;5035666;28;20196;-67
2022/01/05 03:15:39;;;;;;;1.08;1.08;;;18.20;48.50;;;;;;5019407;28;20674;-68
2022/01/05 03:18:06;;;;;;;0.90;0.90;;;18.20;48.20;;;;;;5019138;28;20314;-70
2022/01/05 03:20:34;;;;;;;1.10;1.10;;;18.20;48.10;;;;;;5037400;28;20192;-70
2022/01/05 03:23:01;;;;;;;1.17;1.17;;;18.20;48.10;;;;;;5018512;28;20279;-68
2022/01/05 03:25:28;;;;;;;1.13;1.13;;;18.20;48.20;;;;;;5035317;28;20235;-68
2022/01/05 03:27:56;;;;;;;0.95;0.95;;;18.20;48.10;;;;;;5018338;28;20212;-70
2022/01/05 03:30:26;;;;;;;1.10;1.10;;;18.20;48.00;;;;;;5035896;28;20207;-68
2022/01/05 03:35:39;;;;;;;1.02;1.02;;;18.20;48.20;;;;;;5019274;28;20513;-70
2022/01/05 03:38:07;;;;;;;1.13;1.10;;;18.20;48.10;;;;;;5017900;28;20224;-69
2022/01/05 03:40:34;;;;;;;1.00;1.00;;;18.20;48.20;;;;;;5017554;28;20200;-68
2022/01/05 03:43:02;;;;;;;1.10;1.10;;;18.20;48.10;;;;;;5018152;28;20219;-68
2022/01/05 03:45:31;;;;;;;1.00;1.00;;;18.20;48.10;;;;;;5034304;28;20562;-70
2022/01/05 03:47:58;;;;;;;0.90;0.90;;;18.10;48.40;;;;;;5017576;28;20325;-68
2022/01/05 03:50:26;;;;;;;0.90;0.90;;;18.20;48.30;;;;;;5034228;28;20227;-67
2022/01/05 03:52:53;;;;;;;1.10;1.10;;;18.10;48.00;;;;;;5017904;28;20200;-67
2022/01/05 03:55:20;;;;;;;1.00;0.90;;;18.10;48.10;;;;;;5034357;28;20670;-69
2022/01/05 03:57:47;;;;;;;1.02;1.02;;;18.10;48.10;;;;;;5018031;28;20585;-68
2022/01/05 04:00:14;;;;;;;1.10;1.10;;;18.10;48.00;;;;;;5017715;28;20196;-68
2022/01/05 04:02:43;;;;;;;0.90;0.90;;;18.10;48.00;;;;;;5035726;28;20262;-70
2022/01/05 04:05:10;;;;;;;0.90;0.90;;;18.10;48.30;;;;;;5036227;28;20252;-70
2022/01/05 04:07:37;;;;;;;0.93;0.93;;;18.10;48.30;;;;;;5037375;28;20227;-67
2022/01/05 04:10:05;;;;;;;1.00;1.00;;;18.10;48.20;;;;;;5035627;28;20686;-68
2022/01/05 04:12:32;;;;;;;0.90;0.90;;;18.10;48.20;;;;;;5036911;28;20184;-70
2022/01/05 04:14:59;;;;;;;1.00;1.00;;;18.10;48.10;;;;;;5035996;28;20722;-69
2022/01/05 04:17:26;;;;;;;0.93;0.93;;;18.10;48.30;;;;;;5017628;28;20239;-67
2022/01/05 04:19:55;;;;;;;0.90;0.90;;;18.00;47.90;;;;;;5035014;28;20204;-69
2022/01/05 04:22:22;;;;;;;0.80;0.80;;;18.00;48.30;;;;;;5033792;28;20238;-70
2022/01/05 04:24:49;;;;;;;0.90;0.90;;;18.00;48.00;;;;;;5017319;28;20211;-68
2022/01/05 04:27:16;;;;;;;1.00;1.00;;;18.00;47.80;;;;;;5033499;28;20722;-68
2022/01/05 04:29:46;;;;;;;0.95;0.95;;;18.00;48.20;;;;;;5034911;28;20254;-69
2022/01/05 04:32:14;;;;;;;1.00;1.00;;;18.10;48.50;;;;;;5016670;28;20580;-70
2022/01/05 04:34:41;;;;;;;1.00;1.00;;;18.10;47.90;;;;;;5033016;28;20250;-70
2022/01/05 04:37:09;;;;;;;1.00;1.00;;;18.10;47.80;;;;;;5032991;28;20212;-67
2022/01/05 04:39:36;;;;;;;1.02;1.02;;;18.10;47.80;;;;;;5033345;28;20215;-68
2022/01/05 04:42:04;;;;;;;1.00;1.00;;;18.10;47.60;;;;;;5033169;28;20219;-69
2022/01/05 04:44:31;;;;;;;1.00;1.00;;;18.10;47.60;;;;;;5034913;28;20218;-69
2022/01/05 04:46:58;;;;;;;1.00;1.00;;;18.10;47.50;;;;;;5033315;28;20696;-66
2022/01/05 04:49:25;;;;;;;1.00;1.00;;;18.10;47.40;;;;;;5034344;28;20184;-70
2022/01/05 04:51:52;;;;;;;0.93;0.93;;;18.20;47.50;;;;;;5016662;28;20188;-68
2022/01/05 04:54:20;;;;;;;0.88;0.88;;;18.20;47.50;;;;;;5016260;28;20196;-69
2022/01/05 04:56:48;;;;;;;1.02;1.02;;;18.20;47.50;;;;;;5034282;28;20211;-68
2022/01/05 04:59:15;;;;;;;0.90;0.90;;;18.20;47.40;;;;;;5016012;28;20200;-70
2022/01/05 05:01:42;;;;;;;1.00;1.00;;;18.30;47.40;;;;;;5034320;28;20211;-69
2022/01/05 05:04:09;;;;;;;1.00;1.00;;;18.20;47.30;;;;;;5016479;28;20652;-67
2022/01/05 05:06:36;;;;;;;0.80;0.80;;;18.20;47.30;;;;;;5016453;28;20204;-70
2022/01/05 05:09:03;;;;;;;1.27;0.80;;;18.30;47.50;;;;;;5033871;28;20200;-69
2022/01/05 05:11:32;;;;;;;0.90;0.90;;;18.30;47.90;;;;;;5032674;28;20291;-68
2022/01/05 05:13:59;;;;;;;0.90;0.90;;;18.30;47.40;;;;;;5016353;28;20188;-68
2022/01/05 05:16:26;;;;;;;0.90;0.90;;;18.30;47.50;;;;;;5032683;28;20659;-69
2022/01/05 05:18:53;;;;;;;0.82;0.82;;;18.30;47.40;;;;;;5032446;28;20617;-68
2022/01/05 05:21:20;;;;;;;1.00;1.00;;;18.30;48.00;;;;;;5016550;28;20668;-68
2022/01/05 05:23:47;;;;;;;1.00;1.00;;;18.30;47.30;;;;;;5015940;28;20200;-68
2022/01/05 05:26:14;;;;;;;0.90;0.90;;;18.30;47.50;;;;;;5033057;28;20231;-69
2022/01/05 05:28:42;;;;;;;1.10;1.10;;;18.30;47.40;;;;;;5033540;28;20218;-68
2022/01/05 05:31:10;;;;;;;1.00;1.00;;;18.30;48.00;;;;;;5016528;28;20656;-69
2022/01/05 05:33:37;;;;;;;0.93;0.93;;;18.30;47.50;;;;;;5016014;28;20196;-70
2022/01/05 05:36:04;;;;;;;0.90;0.90;;;18.30;46.90;;;;;;5032553;28;20207;-69
2022/01/05 05:38:31;;;;;;;0.90;0.90;;;18.30;46.70;;;;;;5033677;28;20303;-65
2022/01/05 05:40:58;;;;;;;1.00;1.00;;;18.40;46.60;;;;;;5032719;28;20204;-70
2022/01/05 05:43:25;;;;;;;1.10;1.05;;;18.40;46.60;;;;;;5033859;28;20204;-70
2022/01/05 05:45:54;;;;;;;1.40;1.08;;;18.40;46.70;;;;;;5016516;28;20236;-68
2022/01/05 05:48:21;;;;;;;1.20;1.20;;;18.40;47.30;;;;;;5016993;28;20216;-68
2022/01/05 05:50:48;;;;;;;1.45;1.10;;;18.40;47.10;;;;;;5016122;28;20192;-69
2022/01/05 05:53:16;;;;;;;1.10;1.10;;;18.50;47.20;;;;;;5016032;28;20192;-69
2022/01/05 05:55:43;;;;;;;1.05;1.05;;;18.50;47.50;;;;;;5032803;28;20652;-68
2022/01/05 05:58:10;;;;;;;3.10;1.00;;;18.50;47.80;;;;;;5032712;28;20223;-68
2022/01/05 06:00:37;;;;;;;1.27;1.20;;;18.50;47.50;;;;;;5033004;28;20206;-70
2022/01/05 06:03:05;;;;;;;1.00;1.00;;;18.50;47.60;;;;;;5032982;28;20274;-69
2022/01/05 06:05:32;;;;;;;1.27;1.20;;;18.50;47.20;;;;;;5016334;28;20226;-69
2022/01/05 06:08:00;;;;;;;1.48;1.20;;;18.60;47.30;;;;;;5016636;28;20723;-70
2022/01/05 06:10:27;;;;;;;1.20;1.10;;;18.60;48.20;;;;;;5016377;28;20200;-69
2022/01/05 06:12:55;;;;;;;1.08;1.00;;;18.60;48.50;;;;;;5016564;28;20556;-68
2022/01/05 06:15:22;;;;;;;1.30;1.20;;;18.60;48.30;;;;;;5016232;28;20203;-68
2022/01/05 06:17:49;;;;;;;1.45;1.08;;;18.60;47.50;;;;;;5015964;28;20367;-70
2022/01/05 06:20:17;;;;;;;1.23;1.13;;;18.60;47.60;;;;;;5033222;28;20291;-69
2022/01/05 06:22:44;;;;;;;1.55;1.00;;;18.70;48.10;;;;;;5033759;28;20359;-67
2022/01/05 06:25:12;;;;;;;1.27;1.27;;;18.70;47.70;;;;;;5019550;28;20203;-67
2022/01/05 06:27:39;;;;;;;1.08;1.00;;;18.70;47.60;;;;;;5019730;28;20220;-70
2022/01/05 06:30:08;;;;;;;1.67;1.30;;;18.70;47.20;;;;;;5036259;28;20330;-67
2022/01/05 06:32:35;;;;;;;1.20;1.10;;;18.70;47.00;;;;;;5019668;28;20218;-67
2022/01/05 06:35:03;;;;;;;1.60;1.15;;;18.70;47.00;;;;;;5035891;28;20693;-70
2022/01/05 06:37:31;;;;;;;1.10;1.10;;;18.70;47.10;;;;;;5036317;28;20274;-69
2022/01/05 06:39:58;;;;;;;1.20;1.10;;;18.70;46.80;;;;;;5037156;28;20197;-69
2022/01/05 06:42:25;;;;;;;1.02;1.02;;;18.70;46.60;;;;;;5036111;28;20215;-67
2022/01/05 06:44:52;;;;;;;1.45;1.30;;;18.70;46.60;;;;;;5019698;28;20196;-70
2022/01/05 06:47:19;;;;;;;1.10;1.10;;;18.70;46.40;;;;;;5036105;28;20598;-69
2022/01/05 06:49:47;;;;;;;1.50;1.40;;;18.70;46.20;;;;;;5037197;28;20267;-69
2022/01/05 06:52:14;;;;;;;1.40;1.30;;;18.70;46.10;;;;;;5036282;28;20196;-67
2022/01/05 06:54:42;;;;;;;1.83;1.30;;;18.70;46.00;;;;;;5036539;28;20227;-68
2022/01/05 06:57:10;;;;;;;1.50;1.27;;;18.70;45.90;;;;;;5018977;28;20593;-68
2022/01/05 06:59:37;;;;;;;1.83;1.30;;;18.70;46.00;;;;;;5019086;28;20340;-67
2022/01/05 07:02:05;;;;;;;3.63;1.75;;;18.70;46.00;;;;;;5036690;28;20767;-66
2022/01/05 07:04:32;;;;;;;2.55;1.90;;;18.70;46.20;;;;;;5035101;28;20234;-69
2022/01/05 07:06:59;;;;;;;3.50;2.00;;;18.70;46.20;;;;;;5036534;28;20581;-68
2022/01/05 07:09:26;;;;;;;3.15;1.88;;;18.70;46.20;;;;;;5019015;28;20290;-68
2022/01/05 07:11:55;;;;;;;3.00;2.00;;;18.70;46.20;;;;;;5019837;28;20233;-69
2022/01/05 07:14:23;;;;;;;1.90;1.70;;;18.70;46.20;;;;;;5019107;28;20211;-68
2022/01/05 07:16:51;;;;;;;3.78;2.08;;;18.80;46.00;;;;;;5018935;28;20259;-69
2022/01/05 07:19:19;;;;;;;2.13;1.80;;;18.80;46.20;;;;;;5019155;28;20254;-67
2022/01/05 07:21:46;;;;;;;1.50;1.40;;;18.70;45.90;;;;;;5018516;28;20200;-67
2022/01/05 07:24:17;;;;;;;2.95;1.65;;;18.70;45.90;;;;;;5035412;28;20258;-69
2022/01/05 07:26:44;;;;;;;1.88;1.50;;;18.70;45.90;;;;;;5035524;28;20553;-70
2022/01/05 07:29:12;;;;;;;3.17;1.60;;;18.80;46.10;;;;;;5036801;28;20283;-68
2022/01/05 07:31:39;;;;;;;2.55;1.63;;;18.80;46.20;;;;;;5035582;28;20287;-66
2022/01/05 07:34:06;;;;;;;2.80;1.60;;;18.80;46.10;;;;;;5025944;28;20242;-70
2022/01/05 07:36:33;;;;;;;1.50;1.40;;;18.80;46.10;;;;;;5031411;28;20223;-68
2022/01/05 07:39:02;;;;;;;1.60;1.50;;;18.80;46.70;;;;;;5047223;28;20200;-68
2022/01/05 07:41:29;;;;;;;1.95;1.50;;;18.80;46.10;;;;;;5019498;28;20619;-69
2022/01/05 07:43:57;;;;;;;2.47;1.60;;;18.80;46.10;;;;;;5034868;28;20211;-69
2022/01/05 07:46:25;;;;;;;1.80;1.50;;;18.80;46.20;;;;;;5036003;28;20239;-69
2022/01/05 07:48:53;;;;;;;2.67;1.60;;;18.80;46.60;;;;;;5034307;28;20200;-68
2022/01/05 07:51:20;;;;;;;1.40;1.30;;;18.80;46.10;;;;;;5018091;28;20200;-68
2022/01/05 07:53:47;;;;;;;3.22;1.70;;;18.80;46.00;;;;;;5017446;28;20238;-70
2022/01/05 07:56:14;;;;;;;2.83;1.67;;;18.80;46.10;;;;;;5017682;28;20208;-68
2022/01/05 07:58:42;;;;;;;1.50;1.40;;;18.80;46.00;;;;;;5017915;28;20533;-66
2022/01/05 08:01:09;;;;;;;2.33;1.50;;;18.80;46.00;;;;;;5017320;28;20726;-66
2022/01/05 08:03:38;;;;;;;2.38;1.70;;;18.80;45.90;;;;;;5033655;28;20212;-69
2022/01/05 08:06:05;;;;;;;1.45;1.35;;;18.80;45.90;;;;;;5033880;28;20200;-68
2022/01/05 08:08:32;;;;;;;3.03;1.70;;;18.80;46.00;;;;;;5033825;28;20700;-66
2022/01/05 08:10:59;;;;;;;6.55;1.90;;;18.80;46.00;;;;;;5017302;28;20196;-70
2022/01/05 08:13:27;;;;;;;2.92;2.00;;;18.80;46.00;;;;;;5016702;28;20250;-68
2022/01/05 08:15:54;;;;;;;3.85;2.22;;;18.80;46.00;;;;;;5017073;28;20188;-68
2022/01/05 08:18:21;;;;;;;5.72;2.22;;;18.80;46.10;;;;;;5033091;28;20755;-67
2022/01/05 08:20:49;;;;;;;4.65;2.30;;;18.80;46.10;;;;;;5016852;28;20567;-69
2022/01/05 08:23:17;;;;;;;5.25;2.50;;;18.80;45.90;;;;;;5016797;28;20573;-68
2022/01/05 08:25:44;;;;;;;5.00;2.63;;;18.90;46.40;;;;;;5016511;28;20200;-67
2022/01/05 08:28:11;;;;;;;5.72;2.60;;;18.90;46.20;;;;;;5015987;28;20227;-67
2022/01/05 08:30:38;;;;;;;4.93;2.47;;;18.90;46.30;;;;;;5016131;28;20198;-70
2022/01/05 08:33:06;;;;;;;6.15;2.60;;;18.90;46.40;;;;;;5016456;28;20313;-67
2022/01/05 08:35:33;;;;;;;5.45;2.30;;;18.90;46.10;;;;;;5034090;28;20188;-68
2022/01/05 08:38:01;;;;;;;3.63;2.05;;;18.90;46.10;;;;;;5015905;28;20258;-69
2022/01/05 08:40:28;;;;;;;4.25;2.30;;;19.00;45.90;;;;;;5032632;28;20204;-70
2022/01/05 08:42:56;;;;;;;5.05;2.50;;;19.00;46.00;;;;;;5016129;28;20243;-68
2022/01/05 08:45:24;;;;;;;4.40;2.38;;;19.00;45.80;;;;;;5034192;28;20612;-68
2022/01/05 08:47:52;;;;;;;7.18;3.00;;;19.00;46.00;;;;;;5034134;28;20200;-69
2022/01/05 08:50:20;;;;;;;5.35;2.50;;;19.00;47.40;;;;;;5033421;28;20196;-68
2022/01/05 08:52:48;;;;;;;4.18;2.50;;;19.00;50.00;;;;;;5033026;28;20224;-69
2022/01/05 08:55:17;;;;;;;4.60;2.30;;;19.00;50.90;;;;;;5033063;28;20208;-67
2022/01/05 08:57:44;;;;;;;4.20;2.40;;;19.10;49.50;;;;;;5032766;28;20243;-67
2022/01/05 09:00:12;;;;;;;7.05;2.47;;;19.20;49.50;;;;;;5033964;28;20541;-68
2022/01/05 09:02:39;;;;;;;4.90;2.45;;;19.20;48.90;;;;;;5016304;28;20212;-68
2022/01/05 09:05:06;;;;;;;5.85;2.40;;;19.20;49.00;;;;;;5033044;28;20219;-67
2022/01/05 09:07:33;;;;;;;2.90;2.00;;;19.20;48.30;;;;;;5016147;28;20318;-69
2022/01/05 09:10:00;;;;;;;4.45;2.38;;;19.30;48.10;;;;;;5015971;28;20192;-68
2022/01/05 09:12:28;;;;;;;5.70;2.10;;;19.30;48.20;;;;;;5015798;28;20272;-68
2022/01/05 09:14:56;;;;;;;3.45;2.03;;;19.30;47.40;;;;;;5033923;28;20571;-68
2022/01/05 09:17:24;;;;;;;4.45;2.35;;;19.30;47.60;;;;;;5015835;28;20247;-69
2022/01/05 09:19:52;;;;;;;3.97;2.42;;;19.30;47.20;;;;;;5015795;28;20191;-70
2022/01/05 09:22:19;;;;;;;3.47;2.05;;;19.30;47.20;;;;;;5033818;28;20188;-66
2022/01/05 09:24:46;;;;;;;4.13;2.28;;;19.30;47.00;;;;;;5033618;28;20224;-68
2022/01/05 09:27:13;;;;;;;3.80;2.20;;;19.30;46.90;;;;;;5032151;28;20310;-69
2022/01/05 09:29:41;;;;;;;3.38;2.10;;;19.30;47.00;;;;;;5032168;28;20238;-66
2022/01/05 09:32:09;;;;;;;3.83;1.90;;;19.30;46.80;;;;;;5015830;28;20211;-67
2022/01/05 09:34:36;;;;;;;3.53;2.00;;;19.40;46.90;;;;;;5017279;28;20203;-66
2022/01/05 09:37:09;;;;;;;3.20;1.90;;;19.40;46.80;;;;;;5033466;28;20262;-69
2022/01/05 09:42:22;;;;;;;3.22;1.80;;;19.40;46.40;;;;;;5016322;28;20211;-68
2022/01/05 09:44:50;;;;;;;3.25;2.00;;;19.40;46.20;;;;;;5032399;28;20258;-69
2022/01/05 09:47:33;;;;;;;2.25;1.65;;;19.40;46.20;;;;;;5016012;28;20274;-69
2022/01/05 09:50:01;;;;;;;4.88;2.00;;;19.40;46.30;;;;;;5033049;28;20210;-69
2022/01/05 09:52:28;;;;;;;3.83;2.10;;;19.40;45.90;;;;;;5032707;28;20235;-68
2022/01/05 09:54:55;;;;;;;3.40;2.10;;;19.50;45.90;;;;;;5034597;28;20191;-66
2022/01/05 09:57:22;;;;;;;2.42;1.90;;;19.50;46.10;;;;;;5032753;28;20302;-69
2022/01/05 09:59:51;;;;;;;3.30;1.80;;;19.50;45.40;;;;;;5035986;28;20234;-68
2022/01/05 10:02:19;;;;;;;4.43;2.10;;;19.50;45.40;;;;;;5020312;28;20199;-68
2022/01/05 10:04:46;;;;;;;3.85;1.88;;;19.50;45.40;;;;;;5019760;28;20238;-66
2022/01/05 10:07:13;;;;;;;3.08;1.90;;;19.60;45.50;;;;;;5019763;28;20216;-68
2022/01/05 10:09:40;;;;;;;3.67;2.10;;;19.60;45.50;;;;;;5019282;28;20223;-68
2022/01/05 10:12:08;;;;;;;3.42;1.90;;;19.60;45.40;;;;;;5037415;28;20215;-68
2022/01/05 10:14:35;;;;;;;4.15;2.22;;;19.50;45.40;;;;;;5019623;28;20254;-68
2022/01/05 10:17:05;;;;;;;3.60;2.08;;;19.50;45.40;;;;;;5019072;28;20254;-70
2022/01/05 10:19:32;;;;;;;4.40;2.17;;;19.50;45.40;;;;;;5036146;28;20295;-68
2022/01/05 10:22:00;;;;;;;4.43;1.90;;;19.50;45.10;;;;;;5019325;28;20228;-69
2022/01/05 10:24:43;;;;;;;2.10;1.80;;;19.50;45.40;;;;;;5019016;28;20226;-66
2022/01/05 10:27:18;;;;;;;5.68;2.67;;;19.50;45.30;;;;;;5019176;28;20323;-67
2022/01/05 10:29:53;;;;;;;2.90;1.92;;;19.50;44.90;;;;;;5019395;28;20206;-68
2022/01/05 10:32:21;;;;;;;3.33;2.08;;;19.50;44.80;;;;;;5019262;28;20202;-67
2022/01/05 10:35:10;;;;;;;2.33;1.83;;;19.50;44.50;;;;;;5018931;28;20192;-69
2022/01/05 10:37:39;;;;;;;2.63;1.60;;;19.50;44.60;;;;;;5016070;28;20323;-68
2022/01/05 10:40:08;;;;;;;2.63;1.75;;;19.50;43.90;;;;;;5035588;28;20390;-66
2022/01/05 10:42:36;;;;;;;3.78;1.90;;;19.50;43.80;;;;;;5035682;28;20192;-68
2022/01/05 10:45:05;;;;;;;3.92;2.08;;;19.40;43.30;;;;;;5018706;28;20208;-68
2022/01/05 10:47:34;;;;;;;2.90;1.70;;;19.40;43.50;;;;;;5035266;28;20222;-69
2022/01/05 10:50:01;;;;;;;2.53;1.63;;;19.40;44.10;;;;;;5018574;28;20203;-70
2022/01/05 10:52:29;;;;;;;2.38;1.70;;;19.40;43.20;;;;;;5035181;28;20196;-69
2022/01/05 10:54:57;;;;;;;2.55;1.70;;;19.40;43.00;;;;;;5018938;28;20195;-68
2022/01/05 10:57:25;;;;;;;2.53;1.80;;;19.50;43.10;;;;;;5018595;28;20635;-70
2022/01/05 10:59:53;;;;;;;2.75;1.83;;;19.40;43.40;;;;;;5035081;28;20199;-69
2022/01/05 11:02:22;;;;;;;3.53;1.90;;;19.40;43.30;;;;;;5035400;28;20211;-67
2022/01/05 11:04:50;;;;;;;2.20;1.80;;;19.50;42.90;;;;;;5018959;28;20224;-66
2022/01/05 11:07:21;;;;;;;1.95;1.70;;;19.50;43.00;;;;;;5034969;28;20228;-68
2022/01/05 11:09:56;;;;;;;2.53;1.80;;;19.50;42.60;;;;;;5017547;28;20219;-68
2022/01/05 11:12:32;;;;;;;3.20;1.70;;;19.40;42.60;;;;;;5034945;28;20199;-68
2022/01/05 11:15:16;;;;;;;2.80;1.90;;;19.50;42.50;;;;;;5036320;28;20191;-70
2022/01/05 11:17:45;;;;;;;2.45;1.70;;;19.50;42.90;;;;;;5038764;28;20216;-68
2022/01/05 11:20:14;;;;;;;2.67;1.75;;;19.50;42.90;;;;;;5022229;28;20176;-68
2022/01/05 11:22:41;;;;;;;3.88;1.83;;;19.50;42.70;;;;;;5037060;28;20192;-69
2022/01/05 11:25:08;;;;;;;2.03;1.83;;;19.50;42.80;;;;;;5036615;28;20211;-68
2022/01/05 11:27:35;;;;;;;2.17;1.70;;;19.50;43.00;;;;;;5035194;28;20224;-67
2022/01/05 11:30:04;;;;;;;3.00;1.75;;;19.50;43.00;;;;;;5019888;28;20200;-68
2022/01/05 11:32:34;;;;;;;2.75;1.55;;;19.60;43.20;;;;;;5029638;28;20299;-69
2022/01/05 11:35:01;;;;;;;1.85;1.73;;;19.60;42.90;;;;;;5035113;28;20291;-70
2022/01/05 11:37:30;;;;;;;2.75;1.70;;;19.60;43.70;;;;;;5018512;28;20226;-67
2022/01/05 11:39:57;;;;;;;4.15;1.80;;;19.60;43.00;;;;;;5018063;28;20213;-66
2022/01/05 11:42:26;;;;;;;3.67;1.80;;;19.60;43.20;;;;;;5034754;28;20200;-69
2022/01/05 11:44:54;;;;;;;3.10;1.88;;;19.70;43.00;;;;;;5018057;28;20226;-69
2022/01/05 11:47:23;;;;;;;2.47;1.90;;;19.70;42.90;;;;;;5017788;28;20227;-68
2022/01/05 11:49:50;;;;;;;2.75;1.83;;;19.70;43.10;;;;;;5034894;28;20287;-69
2022/01/05 11:52:17;;;;;;;2.83;1.50;;;19.70;42.40;;;;;;5018278;28;20200;-68
2022/01/05 11:55:01;;;;;;;2.30;1.77;;;19.80;42.70;;;;;;5018170;28;20327;-69
2022/01/05 11:57:28;;;;;;;2.78;1.90;;;19.80;42.60;;;;;;5035513;28;20771;-66
2022/01/05 12:00:13;;;;;;;2.20;1.95;;;19.80;42.70;;;;;;5036188;28;20199;-69
2022/01/05 12:02:41;;;;;;;3.38;1.90;;;19.90;42.70;;;;;;5035503;28;20669;-69
2022/01/05 12:05:07;;;;;;;3.38;1.95;;;19.90;42.40;;;;;;5035414;28;20220;-69
2022/01/05 12:07:36;;;;;;;3.60;1.95;;;19.80;42.00;;;;;;5035081;28;20208;-68
2022/01/05 12:10:12;;;;;;;2.58;1.83;;;19.80;42.30;;;;;;5034594;28;20195;-68
2022/01/05 12:12:39;;;;;;;2.45;1.73;;;19.90;41.80;;;;;;5035180;28;20172;-68
2022/01/05 12:15:06;;;;;;;3.50;1.80;;;19.90;42.10;;;;;;5016678;28;20196;-69
2022/01/05 12:17:35;;;;;;;2.70;1.70;;;19.90;41.50;;;;;;5017041;28;20341;-68
2022/01/05 12:20:12;;;;;;;2.22;1.70;;;19.90;41.80;;;;;;5017219;28;20200;-69
2022/01/05 12:22:39;;;;;;;2.25;1.90;;;20.00;41.60;;;;;;5033378;28;20192;-68
2022/01/05 12:25:22;;;;;;;3.22;1.85;;;20.00;41.70;;;;;;5033482;28;20212;-68
2022/01/05 12:27:54;;;;;;;2.97;1.98;;;20.10;41.90;;;;;;5015726;28;20230;-67
2022/01/05 12:30:39;;;;;;;3.53;1.80;;;20.10;41.30;;;;;;5017297;28;20204;-68
2022/01/05 12:33:08;;;;;;;4.68;2.10;;;20.10;42.00;;;;;;5034088;28;20199;-68
2022/01/05 12:35:59;;;;;;;2.25;1.80;;;20.20;41.80;;;;;;5017225;28;20228;-66
2022/01/05 12:38:34;;;;;;;3.33;1.90;;;20.20;41.60;;;;;;5018050;28;20239;-68
2022/01/05 12:41:42;;;;;;;2.42;1.77;;;20.20;42.40;;;;;;5018011;28;20199;-68
2022/01/05 12:44:37;;;;;;;2.92;1.70;;;20.20;41.90;;;;;;5034499;28;20210;-70
2022/01/05 12:47:04;;;;;;;2.88;1.63;;;20.30;41.60;;;;;;5018422;28;20311;-69
2022/01/05 12:49:33;;;;;;;3.28;1.80;;;20.20;41.20;;;;;;5017706;28;20251;-69
2022/01/05 12:52:05;;;;;;;2.75;1.70;;;20.20;41.40;;;;;;5035158;28;20199;-68
2022/01/05 12:54:41;;;;;;;3.47;2.30;;;20.30;41.50;;;;;;5034274;28;20200;-70
2022/01/05 12:57:11;;;;;;;2.25;1.90;;;20.20;41.20;;;;;;5017381;28;20227;-67
2022/01/05 12:59:40;;;;;;;5.93;1.85;;;20.20;42.00;;;;;;5016401;28;20239;-67